createdAt,value
2023-03-18T00:02:04.957Z,15.22
2023-03-18T00:04:34.797Z,13.93
2023-03-18T00:07:06.981Z,13.96
2023-03-18T00:09:36.719Z,13.94
2023-03-18T00:12:08.413Z,14.47
2023-03-18T00:14:38.964Z,14.24
2023-03-18T00:17:09.661Z,13.80
2023-03-18T00:19:39.287Z,14.34
2023-03-18T00:22:12.111Z,14.18
2023-03-18T00:24:41.683Z,14.31
2023-03-18T00:27:11.882Z,14.22
2023-03-18T00:29:41.679Z,14.04
2023-03-18T00:32:11.854Z,13.74
2023-03-18T00:34:41.973Z,14.02
2023-03-18T00:37:18.988Z,14.40
2023-03-18T00:39:48.886Z,14.35
2023-03-18T00:42:18.603Z,14.26
2023-03-18T00:44:48.368Z,14.19
2023-03-18T00:47:17.979Z,14.60
2023-03-18T00:49:48.223Z,14.38
2023-03-18T00:52:20.390Z,13.95
2023-03-18T00:54:50.480Z,13.97
2023-03-18T00:57:20.502Z,13.77
2023-03-18T00:59:50.672Z,13.57
2023-03-18T01:02:20.873Z,13.65
2023-03-18T01:04:51.041Z,13.61
2023-03-18T01:07:23.307Z,13.65
2023-03-18T01:09:52.966Z,13.62
2023-03-18T01:12:22.861Z,13.41
2023-03-18T01:14:52.607Z,13.49
2023-03-18T01:17:22.187Z,13.51
2023-03-18T01:19:51.778Z,13.65
2023-03-18T01:22:24.426Z,13.70
2023-03-18T01:24:54.411Z,13.50
2023-03-18T01:27:30.782Z,13.57
2023-03-18T01:30:02.595Z,13.35
2023-03-18T01:32:32.673Z,13.28
2023-03-18T01:35:02.894Z,13.31
2023-03-18T01:37:35.170Z,13.27
2023-03-18T01:40:16.608Z,13.24
2023-03-18T01:42:55.702Z,13.42
2023-03-18T01:45:28.823Z,13.42
2023-03-18T01:48:01.140Z,13.78
2023-03-18T01:50:34.257Z,13.38
2023-03-18T01:53:12.536Z,13.40
2023-03-18T01:55:43.512Z,13.84
2023-03-18T01:58:18.810Z,14.26
2023-03-18T02:00:54.186Z,14.69
2023-03-18T02:03:24.778Z,14.62
2023-03-18T02:05:55.303Z,14.27
2023-03-18T02:08:29.083Z,13.74
2023-03-18T02:10:59.268Z,13.65
2023-03-18T02:13:29.248Z,13.73
2023-03-18T02:16:03.864Z,14.12
2023-03-18T02:18:39.327Z,13.95
2023-03-18T02:21:21.927Z,12.91
2023-03-18T02:24:09.514Z,13.49
2023-03-18T02:26:48.269Z,12.66
2023-03-18T02:29:24.292Z,13.29
2023-03-18T02:32:04.314Z,12.95
2023-03-18T02:34:36.194Z,13.23
2023-03-18T02:37:08.025Z,13.70
2023-03-18T02:39:39.968Z,13.61
2023-03-18T02:42:10.465Z,13.72
2023-03-18T02:44:47.387Z,13.75
2023-03-18T02:47:37.493Z,13.93
2023-03-18T02:50:08.208Z,13.95
2023-03-18T02:52:38.951Z,14.10
2023-03-18T02:55:10.342Z,14.35
2023-03-18T02:57:40.153Z,13.76
2023-03-18T03:00:14.446Z,14.62
2023-03-18T03:02:45.383Z,14.11
2023-03-18T03:05:15.470Z,14.11
2023-03-18T03:07:45.590Z,13.73
2023-03-18T03:10:16.224Z,13.55
2023-03-18T03:12:47.537Z,13.77
2023-03-18T03:15:21.832Z,13.28
2023-03-18T03:17:57.110Z,13.04
2023-03-18T03:20:27.047Z,13.29
2023-03-18T03:22:57.235Z,13.62
2023-03-18T03:25:27.592Z,13.88
2023-03-18T03:27:57.537Z,14.06
2023-03-18T03:30:30.594Z,14.06
2023-03-18T03:33:00.597Z,14.06
2023-03-18T03:35:31.049Z,13.70
2023-03-18T03:38:02.094Z,14.21
2023-03-18T03:40:32.022Z,14.58
2023-03-18T03:43:02.044Z,15.21
2023-03-18T03:45:34.713Z,15.30
2023-03-18T03:48:04.473Z,15.06
2023-03-18T03:50:34.359Z,14.82
2023-03-18T03:53:04.804Z,14.49
2023-03-18T03:55:34.555Z,14.82
2023-03-18T03:58:04.475Z,14.75
2023-03-18T04:00:37.820Z,14.88
2023-03-18T04:03:07.446Z,14.82
2023-03-18T04:05:37.323Z,15.20
2023-03-18T04:08:08.048Z,14.63
2023-03-18T04:10:40.130Z,14.35
2023-03-18T04:13:12.643Z,13.23
2023-03-18T04:15:47.656Z,13.30
2023-03-18T04:18:21.696Z,13.87
2023-03-18T04:20:51.360Z,13.54
2023-03-18T04:23:43.330Z,13.60
2023-03-18T04:26:13.244Z,13.21
2023-03-18T04:28:43.371Z,12.14
2023-03-18T04:31:19.364Z,12.70
2023-03-18T04:33:49.012Z,12.43
2023-03-18T04:36:18.669Z,12.34
2023-03-18T04:38:48.517Z,12.03
2023-03-18T04:41:18.167Z,12.32
2023-03-18T04:43:48.944Z,11.80
2023-03-18T04:46:21.621Z,12.27
2023-03-18T04:48:52.278Z,12.59
2023-03-18T04:51:21.902Z,12.50
2023-03-18T04:53:51.576Z,13.12
2023-03-18T04:56:21.638Z,12.42
2023-03-18T04:58:55.124Z,12.15
2023-03-18T05:01:33.531Z,12.35
2023-03-18T05:04:03.425Z,12.80
2023-03-18T05:06:42.544Z,11.79
2023-03-18T05:09:15.566Z,11.65
2023-03-18T05:11:46.571Z,11.92
2023-03-18T05:14:24.066Z,12.71
2023-03-18T05:16:57.223Z,13.31
2023-03-18T05:19:28.300Z,12.63
2023-03-18T05:22:22.075Z,12.10
2023-03-18T05:24:56.636Z,12.53
2023-03-18T05:27:29.870Z,11.29
2023-03-18T05:30:07.560Z,11.21
2023-03-18T05:32:45.295Z,11.78
2023-03-18T05:35:16.068Z,11.76
2023-03-18T05:37:50.620Z,12.38
2023-03-18T05:40:21.647Z,11.18
2023-03-18T05:43:05.713Z,11.58
2023-03-18T05:45:41.382Z,11.51
2023-03-18T05:48:16.596Z,10.94
2023-03-18T05:50:53.927Z,10.40
2023-03-18T05:53:27.851Z,12.00
2023-03-18T05:56:10.198Z,11.01
2023-03-18T05:58:40.351Z,10.43
2023-03-18T06:01:22.017Z,11.88
2023-03-18T06:03:55.218Z,12.17
2023-03-18T06:06:24.922Z,12.28
2023-03-18T06:08:56.296Z,12.13
2023-03-18T06:11:26.479Z,12.22
2023-03-18T06:13:56.866Z,12.46
2023-03-18T06:16:26.943Z,11.86
2023-03-18T06:19:00.615Z,12.47
2023-03-18T06:21:31.726Z,12.55
2023-03-18T06:24:01.854Z,12.04
2023-03-18T06:26:32.727Z,12.98
2023-03-18T06:29:04.108Z,12.64
2023-03-18T06:31:34.057Z,12.38
2023-03-18T06:34:07.586Z,11.99
2023-03-18T06:36:40.361Z,12.77
2023-03-18T06:39:15.125Z,12.90
2023-03-18T06:41:46.207Z,13.35
2023-03-18T06:44:35.695Z,12.38
2023-03-18T06:47:14.862Z,13.11
2023-03-18T06:49:53.836Z,13.58
2023-03-18T06:52:30.943Z,12.80
2023-03-18T06:55:06.781Z,13.05
2023-03-18T06:57:40.417Z,14.14
2023-03-18T07:00:12.575Z,13.29
2023-03-18T07:02:42.466Z,13.55
2023-03-18T07:05:17.384Z,14.75
2023-03-18T07:07:48.583Z,14.51
2023-03-18T07:10:22.674Z,16.58
2023-03-18T07:12:53.477Z,14.93
2023-03-18T07:15:24.619Z,14.97
2023-03-18T07:17:57.228Z,15.40
2023-03-18T07:20:29.975Z,15.64
2023-03-18T07:22:59.618Z,15.69
2023-03-18T07:25:31.789Z,15.86
2023-03-18T07:28:02.146Z,16.05
2023-03-18T07:30:31.802Z,16.31
2023-03-18T07:33:01.635Z,16.11
2023-03-18T07:35:34.204Z,15.66
2023-03-18T07:38:04.041Z,15.24
2023-03-18T07:40:33.728Z,15.82
2023-03-18T07:43:03.536Z,16.87
2023-03-18T07:45:33.790Z,18.31
2023-03-18T07:48:03.712Z,17.83
2023-03-18T07:50:36.593Z,16.79
2023-03-18T07:53:06.288Z,17.78
2023-03-18T07:55:36.160Z,18.11
2023-03-18T07:58:07.635Z,17.01
2023-03-18T08:00:37.984Z,17.16
2023-03-18T08:03:07.838Z,17.41
2023-03-18T08:05:41.122Z,18.02
2023-03-18T08:08:11.148Z,17.54
2023-03-18T08:10:41.039Z,17.67
2023-03-18T08:13:10.950Z,17.63
2023-03-18T08:15:40.549Z,18.03
2023-03-18T08:18:10.538Z,17.44
2023-03-18T08:20:43.032Z,17.20
2023-03-18T08:23:13.982Z,16.15
2023-03-18T08:25:43.689Z,15.79
2023-03-18T08:28:13.260Z,15.37
2023-03-18T08:30:42.929Z,15.61
2023-03-18T08:33:13.313Z,15.76
2023-03-18T08:35:45.537Z,15.62
2023-03-18T08:38:15.057Z,15.98
2023-03-18T08:40:45.061Z,15.59
2023-03-18T08:43:15.048Z,15.70
2023-03-18T08:45:44.899Z,15.75
2023-03-18T08:48:14.963Z,15.93
2023-03-18T08:50:48.177Z,16.03
2023-03-18T08:53:18.629Z,15.90
2023-03-18T08:55:49.649Z,15.50
2023-03-18T08:58:19.284Z,15.54
2023-03-18T09:00:50.592Z,15.74
2023-03-18T09:03:21.631Z,15.54
2023-03-18T09:05:55.584Z,15.16
2023-03-18T09:08:25.715Z,15.21
2023-03-18T09:10:56.559Z,15.09
2023-03-18T09:13:26.510Z,15.14
2023-03-18T09:15:56.464Z,15.36
2023-03-18T09:18:26.156Z,15.46
2023-03-18T09:20:58.441Z,15.49
2023-03-18T09:23:28.619Z,15.59
2023-03-18T09:25:58.420Z,15.77
2023-03-18T09:28:28.599Z,15.96
2023-03-18T09:30:58.300Z,15.55
2023-03-18T09:33:28.287Z,15.61
2023-03-18T09:36:00.569Z,15.53
2023-03-18T09:38:30.228Z,15.61
2023-03-18T09:41:09.807Z,15.74
2023-03-18T09:43:54.753Z,15.72
2023-03-18T09:46:33.457Z,15.65
2023-03-18T09:49:27.486Z,15.79
2023-03-18T09:52:16.753Z,15.83
2023-03-18T09:54:52.956Z,16.26
2023-03-18T09:57:28.640Z,16.22
2023-03-18T10:00:02.179Z,16.54
2023-03-18T10:02:43.357Z,16.27
2023-03-18T10:05:17.623Z,16.36
2023-03-18T10:07:56.030Z,16.42
2023-03-18T10:10:30.991Z,16.21
2023-03-18T10:13:08.594Z,16.68
2023-03-18T10:15:45.694Z,16.48
2023-03-18T10:18:22.403Z,16.50
2023-03-18T10:21:03.085Z,16.48
2023-03-18T10:23:45.322Z,16.31
2023-03-18T10:26:19.790Z,16.47
2023-03-18T10:29:05.591Z,16.48
2023-03-18T10:31:45.748Z,16.68
2023-03-18T10:34:18.978Z,16.48
2023-03-18T10:36:53.059Z,16.57
2023-03-18T10:39:28.389Z,16.91
2023-03-18T10:42:01.392Z,16.89
2023-03-18T10:44:36.158Z,17.25
2023-03-18T10:47:15.564Z,17.14
2023-03-18T10:49:50.724Z,17.16
2023-03-18T10:52:26.768Z,17.30
2023-03-18T10:54:59.889Z,17.09
2023-03-18T10:57:29.884Z,17.23
2023-03-18T10:59:59.814Z,17.15
2023-03-18T11:02:35.330Z,17.46
2023-03-18T11:05:08.281Z,17.46
2023-03-18T11:07:57.709Z,17.16
2023-03-18T11:10:34.809Z,17.48
2023-03-18T11:13:06.413Z,17.63
2023-03-18T11:15:40.513Z,17.73
2023-03-18T11:18:19.569Z,18.18
2023-03-18T11:20:50.270Z,17.98
2023-03-18T11:23:23.116Z,17.56
2023-03-18T11:25:58.318Z,17.61
2023-03-18T11:28:33.461Z,17.88
2023-03-18T11:31:08.180Z,17.82
2023-03-18T11:33:39.001Z,18.33
2023-03-18T11:36:13.435Z,18.02
2023-03-18T11:38:43.349Z,17.68
2023-03-18T11:41:19.062Z,17.60
2023-03-18T11:43:59.444Z,17.60
2023-03-18T11:46:32.749Z,17.77
2023-03-18T11:49:02.579Z,17.84
2023-03-18T11:51:44.735Z,17.55
2023-03-18T11:54:51.264Z,17.47
2023-03-18T11:57:30.287Z,17.76
2023-03-18T12:00:17.744Z,18.02
2023-03-18T12:03:10.607Z,17.87
2023-03-18T12:06:00.014Z,17.87
2023-03-18T12:08:44.007Z,17.88
2023-03-18T12:11:20.331Z,17.94
2023-03-18T12:14:02.974Z,18.10
2023-03-18T12:16:47.597Z,17.96
2023-03-18T12:19:50.879Z,17.76
2023-03-18T12:22:37.572Z,17.68
2023-03-18T12:25:30.469Z,18.09
2023-03-18T12:28:05.612Z,18.09
2023-03-18T12:30:59.081Z,18.20
2023-03-18T12:33:55.229Z,18.24
2023-03-18T12:36:36.480Z,18.07
2023-03-18T12:39:31.251Z,18.09
2023-03-18T12:42:05.792Z,18.32
2023-03-18T12:44:51.849Z,18.16
2023-03-18T12:47:31.754Z,18.34
2023-03-18T12:50:05.141Z,18.42
2023-03-18T12:52:40.294Z,18.35
2023-03-18T12:55:17.887Z,18.47
2023-03-18T12:57:51.291Z,18.42
2023-03-18T13:00:30.329Z,18.31
2023-03-18T13:03:11.751Z,18.33
2023-03-18T13:05:52.516Z,18.69
2023-03-18T13:08:46.150Z,18.58
2023-03-18T13:11:29.591Z,18.61
2023-03-18T13:14:06.481Z,18.51
2023-03-18T13:16:39.250Z,18.33
2023-03-18T13:19:12.382Z,18.56
2023-03-18T13:21:45.646Z,18.81
2023-03-18T13:24:48.107Z,18.57
2023-03-18T13:27:32.557Z,18.61
2023-03-18T13:30:12.520Z,18.54
2023-03-18T13:32:55.946Z,18.37
2023-03-18T13:36:02.999Z,18.32
2023-03-18T13:38:56.748Z,18.15
2023-03-18T13:41:48.343Z,18.03
2023-03-18T13:44:23.732Z,18.36
2023-03-18T13:47:00.292Z,18.56
2023-03-18T13:49:32.958Z,18.41
2023-03-18T13:52:06.473Z,18.68
2023-03-18T13:54:38.954Z,18.47
2023-03-18T13:57:36.342Z,18.54
2023-03-18T14:00:26.945Z,18.74
2023-03-18T14:03:09.818Z,18.80
2023-03-18T14:05:42.780Z,18.93
2023-03-18T14:08:47.378Z,19.09
2023-03-18T14:11:50.323Z,18.40
2023-03-18T14:14:57.495Z,18.67
2023-03-18T14:17:42.106Z,18.41
2023-03-18T14:20:24.765Z,18.02
2023-03-18T14:22:55.842Z,18.56
2023-03-18T14:25:42.353Z,18.56
2023-03-18T14:28:22.317Z,18.99
2023-03-18T14:31:14.368Z,18.32
2023-03-18T14:33:54.686Z,18.86
2023-03-18T14:36:42.277Z,18.32
2023-03-18T14:39:19.247Z,18.33
2023-03-18T14:41:57.086Z,18.13
2023-03-18T14:44:36.220Z,18.51
2023-03-18T14:47:08.876Z,17.96
2023-03-18T14:49:46.568Z,18.15
2023-03-18T14:52:28.077Z,18.00
2023-03-18T14:54:59.748Z,18.52
2023-03-18T14:57:32.291Z,18.88
2023-03-18T15:00:02.427Z,18.04
2023-03-18T15:02:39.842Z,18.49
2023-03-18T15:05:10.737Z,18.08
2023-03-18T15:07:44.097Z,18.26
2023-03-18T15:10:19.964Z,18.33
2023-03-18T15:13:04.675Z,17.74
2023-03-18T15:15:34.643Z,17.84
2023-03-18T15:18:20.741Z,17.82
2023-03-18T15:20:54.649Z,17.90
2023-03-18T15:23:30.743Z,18.40
2023-03-18T15:26:00.533Z,18.29
2023-03-18T15:28:33.263Z,18.37
2023-03-18T15:31:05.838Z,18.09
2023-03-18T15:33:39.971Z,18.07
2023-03-18T15:36:16.565Z,18.21
2023-03-18T15:38:49.910Z,18.36
2023-03-18T15:41:23.670Z,18.39
2023-03-18T15:43:56.034Z,18.38
2023-03-18T15:46:30.725Z,18.17
2023-03-18T15:49:05.587Z,17.91
2023-03-18T15:51:40.411Z,18.01
2023-03-18T15:54:19.251Z,17.79
2023-03-18T15:56:52.678Z,17.73
2023-03-18T15:59:28.831Z,17.80
2023-03-18T16:01:58.910Z,17.62
2023-03-18T16:04:34.156Z,17.39
2023-03-18T16:07:04.500Z,17.56
2023-03-18T16:09:34.914Z,17.70
2023-03-18T16:12:13.141Z,17.78
2023-03-18T16:14:47.662Z,17.88
2023-03-18T16:17:21.147Z,17.61
2023-03-18T16:19:54.487Z,17.46
2023-03-18T16:22:24.588Z,17.78
2023-03-18T16:24:54.663Z,17.31
2023-03-18T16:27:31.619Z,17.43
2023-03-18T16:30:03.871Z,17.46
2023-03-18T16:32:33.883Z,17.45
2023-03-18T16:35:03.771Z,17.34
2023-03-18T16:37:34.008Z,17.84
2023-03-18T16:40:03.975Z,18.03
2023-03-18T16:42:33.746Z,18.09
2023-03-18T16:45:08.171Z,17.99
2023-03-18T16:47:37.770Z,17.97
2023-03-18T16:50:15.979Z,18.28
2023-03-18T16:52:45.728Z,18.14
2023-03-18T16:55:17.726Z,18.24
2023-03-18T16:57:51.753Z,17.64
2023-03-18T17:00:26.695Z,17.65
2023-03-18T17:02:56.411Z,17.21
2023-03-18T17:05:27.391Z,17.02
2023-03-18T17:07:57.565Z,16.66
2023-03-18T17:10:28.992Z,16.41
2023-03-18T17:13:02.402Z,17.21
2023-03-18T17:15:38.404Z,16.42
2023-03-18T17:18:09.516Z,16.77
2023-03-18T17:20:39.281Z,15.97
2023-03-18T17:23:10.091Z,16.69
2023-03-18T17:25:39.770Z,16.51
2023-03-18T17:28:10.913Z,15.43
2023-03-18T17:30:43.256Z,15.71
2023-03-18T17:33:24.133Z,15.49
2023-03-18T17:35:55.429Z,15.84
2023-03-18T17:38:25.149Z,15.75
2023-03-18T17:40:55.569Z,15.77
2023-03-18T17:43:30.356Z,15.44
2023-03-18T17:46:03.961Z,14.60
2023-03-18T17:48:35.542Z,14.96
2023-03-18T17:51:09.278Z,14.68
2023-03-18T17:53:41.446Z,15.64
2023-03-18T17:56:15.888Z,14.45
2023-03-18T17:58:48.064Z,15.45
2023-03-18T18:01:23.294Z,15.24
2023-03-18T18:03:53.460Z,14.16
2023-03-18T18:06:25.410Z,14.30
2023-03-18T18:09:00.238Z,14.70
2023-03-18T18:11:32.371Z,15.08
2023-03-18T18:14:05.809Z,14.37
2023-03-18T18:16:38.068Z,14.62
2023-03-18T18:19:07.684Z,13.95
2023-03-18T18:21:37.707Z,13.53
2023-03-18T18:24:16.519Z,13.41
2023-03-18T18:26:46.660Z,12.83
2023-03-18T18:29:22.274Z,12.76
2023-03-18T18:31:54.811Z,12.47
2023-03-18T18:34:24.499Z,12.92
2023-03-18T18:36:54.085Z,12.90
2023-03-18T18:39:23.885Z,12.99
2023-03-18T18:41:53.528Z,13.35
2023-03-18T18:44:23.630Z,13.28
2023-03-18T18:46:57.453Z,14.03
2023-03-18T18:49:28.850Z,13.00
2023-03-18T18:52:00.457Z,12.79
2023-03-18T18:54:30.913Z,12.64
2023-03-18T18:57:01.993Z,13.40
2023-03-18T18:59:33.735Z,13.14
2023-03-18T19:02:26.069Z,12.33
2023-03-18T19:04:55.688Z,12.22
2023-03-18T19:07:26.642Z,12.46
2023-03-18T19:09:56.685Z,12.22
2023-03-18T19:12:27.692Z,11.99
2023-03-18T19:14:58.048Z,12.19
2023-03-18T19:17:30.596Z,11.61
2023-03-18T19:20:00.167Z,11.16
2023-03-18T19:22:29.862Z,10.78
2023-03-18T19:25:00.099Z,10.90
2023-03-18T19:27:32.382Z,11.04
2023-03-18T19:30:05.553Z,11.39
2023-03-18T19:32:38.191Z,11.76
2023-03-18T19:35:09.042Z,11.39
2023-03-18T19:37:41.238Z,11.58
2023-03-18T19:40:24.992Z,11.81
2023-03-18T19:42:54.590Z,11.77
2023-03-18T19:45:24.589Z,11.64
2023-03-18T19:47:56.923Z,12.24
2023-03-18T19:50:26.953Z,12.13
2023-03-18T19:52:59.163Z,11.58
2023-03-18T19:55:29.142Z,11.62
2023-03-18T19:57:59.863Z,12.54
2023-03-18T20:00:30.406Z,13.12
2023-03-18T20:03:02.761Z,12.90
2023-03-18T20:05:32.784Z,12.99
2023-03-18T20:08:02.855Z,11.83
2023-03-18T20:10:32.851Z,12.82
2023-03-18T20:13:02.531Z,13.38
2023-03-18T20:15:33.691Z,13.25
2023-03-18T20:18:08.840Z,12.81
2023-03-18T20:20:38.444Z,12.77
2023-03-18T20:23:12.099Z,12.23
2023-03-18T20:25:46.479Z,12.40
2023-03-18T20:28:18.898Z,12.15
2023-03-18T20:30:51.685Z,12.48
2023-03-18T20:33:25.112Z,12.34
2023-03-18T20:35:56.610Z,12.60
2023-03-18T20:38:31.948Z,13.65
2023-03-18T20:41:01.806Z,12.85
2023-03-18T20:43:32.699Z,11.95
2023-03-18T20:46:04.005Z,12.03
2023-03-18T20:48:38.242Z,12.13
2023-03-18T20:51:18.980Z,12.02
2023-03-18T20:53:48.537Z,11.77
2023-03-18T20:56:19.462Z,11.88
2023-03-18T20:58:49.317Z,11.74
2023-03-18T21:01:20.509Z,11.50
2023-03-18T21:03:52.727Z,11.54
2023-03-18T21:06:22.386Z,11.51
2023-03-18T21:08:52.165Z,11.94
2023-03-18T21:11:24.614Z,12.31
2023-03-18T21:13:54.219Z,12.66
2023-03-18T21:16:24.296Z,11.72
2023-03-18T21:18:56.794Z,12.30
2023-03-18T21:21:29.039Z,12.16
2023-03-18T21:23:59.000Z,13.02
2023-03-18T21:26:28.617Z,12.57
2023-03-18T21:28:58.353Z,12.91
2023-03-18T21:31:31.204Z,12.22
2023-03-18T21:34:04.121Z,11.82
2023-03-18T21:36:33.763Z,12.26
2023-03-18T21:39:03.432Z,13.34
2023-03-18T21:41:33.699Z,13.47
2023-03-18T21:44:03.359Z,13.16
2023-03-18T21:46:33.170Z,12.05
2023-03-18T21:49:05.472Z,12.12
2023-03-18T21:51:39.420Z,12.45
2023-03-18T21:54:14.184Z,13.31
2023-03-18T21:56:43.825Z,13.66
2023-03-18T21:59:13.440Z,13.09
2023-03-18T22:01:43.103Z,13.27
2023-03-18T22:04:15.357Z,13.16
2023-03-18T22:06:45.255Z,12.46
2023-03-18T22:09:14.870Z,13.42
2023-03-18T22:11:44.571Z,12.91
2023-03-18T22:14:16.591Z,13.28
2023-03-18T22:16:46.292Z,13.10
2023-03-18T22:19:18.493Z,12.79
2023-03-18T22:21:48.512Z,12.65
2023-03-18T22:24:18.082Z,12.27
2023-03-18T22:26:47.751Z,13.03
2023-03-18T22:29:17.331Z,13.00
2023-03-18T22:31:47.056Z,12.90
2023-03-18T22:34:24.743Z,13.43
2023-03-18T22:36:54.333Z,13.42
2023-03-18T22:39:23.941Z,12.77
2023-03-18T22:41:53.537Z,12.67
2023-03-18T22:44:25.404Z,11.80
2023-03-18T22:46:55.210Z,11.89
2023-03-18T22:49:27.344Z,11.84
2023-03-18T22:51:57.211Z,12.00
2023-03-18T22:54:27.294Z,12.85
2023-03-18T22:56:58.764Z,12.96
2023-03-18T22:59:28.441Z,12.69
2023-03-18T23:01:58.222Z,12.37
2023-03-18T23:04:30.520Z,12.30
2023-03-18T23:07:00.484Z,12.79
2023-03-18T23:09:30.260Z,12.76
2023-03-18T23:11:59.997Z,12.09
2023-03-18T23:14:30.199Z,11.88
2023-03-18T23:16:59.770Z,11.79
2023-03-18T23:19:32.108Z,12.11
2023-03-18T23:22:01.791Z,11.88
2023-03-18T23:24:31.634Z,11.86
2023-03-18T23:27:01.216Z,12.08
2023-03-18T23:29:31.079Z,12.07
2023-03-18T23:32:00.683Z,11.84
2023-03-18T23:34:32.909Z,11.63
2023-03-18T23:37:02.629Z,12.08
2023-03-18T23:39:33.226Z,12.31
2023-03-18T23:42:03.061Z,12.46
2023-03-18T23:44:32.714Z,12.29
2023-03-18T23:47:02.291Z,12.09
2023-03-18T23:49:34.989Z,12.56
2023-03-18T23:52:07.172Z,12.48
2023-03-18T23:54:37.311Z,12.50
2023-03-18T23:57:08.645Z,12.59
2023-03-18T23:59:40.072Z,12.72
